sensor_id;sensor_type;location;lat;lon;timestamp;temperature;humidity
18648;DHT22;9453;50.294;18.644;2023-02-28T05:00:43;-1.30;91.40
18648;DHT22;9453;50.294;18.644;2023-02-28T05:03:10;-1.20;91.40
18648;DHT22;9453;50.294;18.644;2023-02-28T05:05:37;-1.20;91.50
18648;DHT22;9453;50.294;18.644;2023-02-28T05:08:05;-1.20;91.30
18648;DHT22;9453;50.294;18.644;2023-02-28T05:10:32;-1.20;91.30
18648;DHT22;9453;50.294;18.644;2023-02-28T05:13:00;-1.20;91.30
18648;DHT22;9453;50.294;18.644;2023-02-28T05:15:27;-1.10;91.40
18648;DHT22;9453;50.294;18.644;2023-02-28T05:17:55;-1.30;91.40
18648;DHT22;9453;50.294;18.644;2023-02-28T05:20:22;-1.30;91.50
18648;DHT22;9453;50.294;18.644;2023-02-28T05:22:49;-1.30;92.00
18648;DHT22;9453;50.294;18.644;2023-02-28T05:25:20;-1.40;91.70
18648;DHT22;9453;50.294;18.644;2023-02-28T05:27:48;-1.50;92.00
18648;DHT22;9453;50.294;18.644;2023-02-28T05:30:16;-1.50;92.10
18648;DHT22;9453;50.294;18.644;2023-02-28T05:32:43;-1.60;92.20
18648;DHT22;9453;50.294;18.644;2023-02-28T05:35:12;-1.60;92.20
18648;DHT22;9453;50.294;18.644;2023-02-28T05:40:14;-1.70;92.30
18648;DHT22;9453;50.294;18.644;2023-02-28T05:42:42;-1.70;92.40
18648;DHT22;9453;50.294;18.644;2023-02-28T05:45:10;-1.70;92.30
18648;DHT22;9453;50.294;18.644;2023-02-28T05:47:37;-1.70;92.40
18648;DHT22;9453;50.294;18.644;2023-02-28T05:50:06;-1.70;92.60
18648;DHT22;9453;50.294;18.644;2023-02-28T05:52:36;-1.70;92.60
18648;DHT22;9453;50.294;18.644;2023-02-28T05:55:04;-1.50;92.70
18648;DHT22;9453;50.294;18.644;2023-02-28T05:57:32;-1.70;92.70
18648;DHT22;9453;50.294;18.644;2023-02-28T05:59:59;-1.70;92.70
18648;DHT22;9453;50.294;18.644;2023-02-28T06:02:26;-1.60;92.60
18648;DHT22;9453;50.294;18.644;2023-02-28T06:04:54;-1.50;92.60
18648;DHT22;9453;50.294;18.644;2023-02-28T06:07:21;-1.60;92.40
18648;DHT22;9453;50.294;18.644;2023-02-28T06:09:50;-1.60;92.40
18648;DHT22;9453;50.294;18.644;2023-02-28T06:12:17;-1.60;92.30
18648;DHT22;9453;50.294;18.644;2023-02-28T06:14:44;-1.60;92.70
18648;DHT22;9453;50.294;18.644;2023-02-28T06:17:11;-1.50;92.60
18648;DHT22;9453;50.294;18.644;2023-02-28T06:19:41;-1.20;92.70
18648;DHT22;9453;50.294;18.644;2023-02-28T06:22:10;-1.40;92.40
18648;DHT22;9453;50.294;18.644;2023-02-28T06:24:37;-1.30;92.50
18648;DHT22;9453;50.294;18.644;2023-02-28T06:27:05;-1.20;92.30
18648;DHT22;9453;50.294;18.644;2023-02-28T06:29:33;-1.20;92.00
18648;DHT22;9453;50.294;18.644;2023-02-28T06:32:00;-1.20;92.20
18648;DHT22;9453;50.294;18.644;2023-02-28T06:34:27;-1.20;91.70
18648;DHT22;9453;50.294;18.644;2023-02-28T06:36:54;-1.10;91.80
18648;DHT22;9453;50.294;18.644;2023-02-28T06:39:22;-1.00;91.80
18648;DHT22;9453;50.294;18.644;2023-02-28T06:41:48;-1.10;91.60
18648;DHT22;9453;50.294;18.644;2023-02-28T06:44:19;-1.10;91.60
18648;DHT22;9453;50.294;18.644;2023-02-28T06:46:46;-1.00;91.70
18648;DHT22;9453;50.294;18.644;2023-02-28T06:49:13;-1.00;91.50
18648;DHT22;9453;50.294;18.644;2023-02-28T06:51:47;-1.00;91.40
18648;DHT22;9453;50.294;18.644;2023-02-28T06:54:18;-0.90;91.30
18648;DHT22;9453;50.294;18.644;2023-02-28T06:56:45;-0.80;91.00
18648;DHT22;9453;50.294;18.644;2023-02-28T06:59:12;-0.80;90.80
18648;DHT22;9453;50.294;18.644;2023-02-28T07:01:41;-0.70;90.90
18648;DHT22;9453;50.294;18.644;2023-02-28T07:04:11;-0.60;91.00
18648;DHT22;9453;50.294;18.644;2023-02-28T07:06:42;-0.60;90.80
18648;DHT22;9453;50.294;18.644;2023-02-28T07:09:09;-0.60;90.60
18648;DHT22;9453;50.294;18.644;2023-02-28T07:11:36;-0.60;90.60
18648;DHT22;9453;50.294;18.644;2023-02-28T07:14:03;-0.50;90.70
18648;DHT22;9453;50.294;18.644;2023-02-28T07:16:30;-0.50;90.80
18648;DHT22;9453;50.294;18.644;2023-02-28T07:19:02;-0.30;90.40
18648;DHT22;9453;50.294;18.644;2023-02-28T07:21:29;-0.50;90.40
18648;DHT22;9453;50.294;18.644;2023-02-28T07:23:56;-0.30;90.70
18648;DHT22;9453;50.294;18.644;2023-02-28T07:26:23;-0.20;90.80
18648;DHT22;9453;50.294;18.644;2023-02-28T07:28:50;0.00;90.60
18648;DHT22;9453;50.294;18.644;2023-02-28T07:31:18;0.10;90.50
18648;DHT22;9453;50.294;18.644;2023-02-28T07:33:45;0.30;90.30
18648;DHT22;9453;50.294;18.644;2023-02-28T07:36:16;0.30;89.40
18648;DHT22;9453;50.294;18.644;2023-02-28T07:38:46;0.40;88.20
18648;DHT22;9453;50.294;18.644;2023-02-28T07:41:16;0.30;87.90
18648;DHT22;9453;50.294;18.644;2023-02-28T07:43:43;0.40;88.20
18648;DHT22;9453;50.294;18.644;2023-02-28T07:46:13;0.40;88.10
18648;DHT22;9453;50.294;18.644;2023-02-28T07:48:42;0.30;87.40
18648;DHT22;9453;50.294;18.644;2023-02-28T07:51:09;0.40;87.90
18648;DHT22;9453;50.294;18.644;2023-02-28T07:53:38;0.50;88.30
18648;DHT22;9453;50.294;18.644;2023-02-28T07:56:06;0.60;86.40
18648;DHT22;9453;50.294;18.644;2023-02-28T07:58:34;0.60;86.10
18648;DHT22;9453;50.294;18.644;2023-02-28T08:01:06;0.60;84.60
18648;DHT22;9453;50.294;18.644;2023-02-28T08:03:33;0.70;84.70
18648;DHT22;9453;50.294;18.644;2023-02-28T08:06:01;0.70;84.10
18648;DHT22;9453;50.294;18.644;2023-02-28T08:08:28;0.70;83.40
18648;DHT22;9453;50.294;18.644;2023-02-28T08:11:00;0.80;83.80
18648;DHT22;9453;50.294;18.644;2023-02-28T08:13:28;0.90;83.90
18648;DHT22;9453;50.294;18.644;2023-02-28T08:15:56;1.00;83.50
18648;DHT22;9453;50.294;18.644;2023-02-28T08:18:23;1.00;82.10
18648;DHT22;9453;50.294;18.644;2023-02-28T08:20:51;1.10;81.70
18648;DHT22;9453;50.294;18.644;2023-02-28T08:23:18;1.30;81.70
18648;DHT22;9453;50.294;18.644;2023-02-28T08:25:53;1.30;80.60
18648;DHT22;9453;50.294;18.644;2023-02-28T08:28:21;1.40;80.50
18648;DHT22;9453;50.294;18.644;2023-02-28T08:30:48;1.50;80.40
18648;DHT22;9453;50.294;18.644;2023-02-28T08:33:15;1.40;80.10
18648;DHT22;9453;50.294;18.644;2023-02-28T08:35:42;1.40;80.20
18648;DHT22;9453;50.294;18.644;2023-02-28T08:38:09;1.40;79.90
18648;DHT22;9453;50.294;18.644;2023-02-28T08:40:37;1.40;80.40
18648;DHT22;9453;50.294;18.644;2023-02-28T08:43:03;1.50;80.80
18648;DHT22;9453;50.294;18.644;2023-02-28T08:45:32;1.60;79.70
18648;DHT22;9453;50.294;18.644;2023-02-28T08:47:59;1.70;79.30
18648;DHT22;9453;50.294;18.644;2023-02-28T08:50:27;1.80;78.90
18648;DHT22;9453;50.294;18.644;2023-02-28T08:52:54;1.80;78.40
18648;DHT22;9453;50.294;18.644;2023-02-28T08:55:21;2.00;78.70
18648;DHT22;9453;50.294;18.644;2023-02-28T08:57:48;2.20;78.00
18648;DHT22;9453;50.294;18.644;2023-02-28T09:00:16;2.10;76.00
18648;DHT22;9453;50.294;18.644;2023-02-28T09:02:45;2.20;77.00
18648;DHT22;9453;50.294;18.644;2023-02-28T09:05:12;2.30;76.50
18648;DHT22;9453;50.294;18.644;2023-02-28T09:07:39;2.40;76.40
18648;DHT22;9453;50.294;18.644;2023-02-28T09:10:07;2.50;75.20
18648;DHT22;9453;50.294;18.644;2023-02-28T09:12:34;2.70;75.00
18648;DHT22;9453;50.294;18.644;2023-02-28T09:15:03;3.00;75.20
18648;DHT22;9453;50.294;18.644;2023-02-28T09:17:31;3.20;75.60
18648;DHT22;9453;50.294;18.644;2023-02-28T09:19:59;3.20;69.40
18648;DHT22;9453;50.294;18.644;2023-02-28T09:22:29;3.30;70.60
18648;DHT22;9453;50.294;18.644;2023-02-28T09:24:56;3.60;70.30
18648;DHT22;9453;50.294;18.644;2023-02-28T09:27:23;3.90;69.90
18648;DHT22;9453;50.294;18.644;2023-02-28T09:29:50;4.10;67.50
18648;DHT22;9453;50.294;18.644;2023-02-28T09:32:17;4.30;66.70
18648;DHT22;9453;50.294;18.644;2023-02-28T09:34:44;4.40;65.80
18648;DHT22;9453;50.294;18.644;2023-02-28T09:37:13;4.30;63.80
18648;DHT22;9453;50.294;18.644;2023-02-28T09:39:40;4.30;63.50
18648;DHT22;9453;50.294;18.644;2023-02-28T09:42:18;4.30;64.60
18648;DHT22;9453;50.294;18.644;2023-02-28T09:44:48;4.40;64.80
18648;DHT22;9453;50.294;18.644;2023-02-28T09:47:21;4.40;64.00
18648;DHT22;9453;50.294;18.644;2023-02-28T09:49:52;4.40;64.50
18648;DHT22;9453;50.294;18.644;2023-02-28T09:52:24;4.10;65.20
18648;DHT22;9453;50.294;18.644;2023-02-28T09:54:55;3.90;66.30
18648;DHT22;9453;50.294;18.644;2023-02-28T09:57:36;3.80;66.90
18648;DHT22;9453;50.294;18.644;2023-02-28T10:00:10;3.90;67.40
18648;DHT22;9453;50.294;18.644;2023-02-28T10:02:54;3.90;67.30
18648;DHT22;9453;50.294;18.644;2023-02-28T10:05:27;3.90;66.30
18648;DHT22;9453;50.294;18.644;2023-02-28T10:10:27;3.60;65.20
18648;DHT22;9453;50.294;18.644;2023-02-28T10:12:58;3.30;66.00
18648;DHT22;9453;50.294;18.644;2023-02-28T10:15:31;3.10;67.30
18648;DHT22;9453;50.294;18.644;2023-02-28T10:18:01;2.80;67.40
18648;DHT22;9453;50.294;18.644;2023-02-28T10:20:33;2.80;68.30
18648;DHT22;9453;50.294;18.644;2023-02-28T10:23:05;2.80;67.50
18648;DHT22;9453;50.294;18.644;2023-02-28T10:25:38;2.90;68.00
18648;DHT22;9453;50.294;18.644;2023-02-28T10:28:10;3.10;68.20
18648;DHT22;9453;50.294;18.644;2023-02-28T10:30:40;3.20;67.40
18648;DHT22;9453;50.294;18.644;2023-02-28T10:33:17;3.40;67.60
18648;DHT22;9453;50.294;18.644;2023-02-28T10:35:46;3.30;66.30
18648;DHT22;9453;50.294;18.644;2023-02-28T10:38:18;3.10;67.00
18648;DHT22;9453;50.294;18.644;2023-02-28T10:40:47;3.10;66.70
18648;DHT22;9453;50.294;18.644;2023-02-28T10:43:20;3.30;67.20
18648;DHT22;9453;50.294;18.644;2023-02-28T10:45:58;3.40;66.80
18648;DHT22;9453;50.294;18.644;2023-02-28T10:48:30;3.30;65.30
18648;DHT22;9453;50.294;18.644;2023-02-28T10:50:58;3.40;66.50
18648;DHT22;9453;50.294;18.644;2023-02-28T10:53:33;3.50;66.60
18648;DHT22;9453;50.294;18.644;2023-02-28T10:56:03;3.60;65.40
18648;DHT22;9453;50.294;18.644;2023-02-28T10:58:45;3.80;65.80
18648;DHT22;9453;50.294;18.644;2023-02-28T11:01:16;4.10;65.60
18648;DHT22;9453;50.294;18.644;2023-02-28T11:03:44;4.20;64.70
18648;DHT22;9453;50.294;18.644;2023-02-28T11:06:16;4.40;65.00
18648;DHT22;9453;50.294;18.644;2023-02-28T11:08:46;4.70;64.60
18648;DHT22;9453;50.294;18.644;2023-02-28T11:11:16;5.00;65.40
18648;DHT22;9453;50.294;18.644;2023-02-28T11:13:45;5.30;63.40
18648;DHT22;9453;50.294;18.644;2023-02-28T11:16:14;5.50;62.70
18648;DHT22;9453;50.294;18.644;2023-02-28T11:18:46;5.70;61.60
18648;DHT22;9453;50.294;18.644;2023-02-28T11:21:21;5.40;60.30
18648;DHT22;9453;50.294;18.644;2023-02-28T11:23:51;5.40;60.50
18648;DHT22;9453;50.294;18.644;2023-02-28T11:26:40;4.80;60.00
18648;DHT22;9453;50.294;18.644;2023-02-28T11:29:18;4.50;61.80
18648;DHT22;9453;50.294;18.644;2023-02-28T11:32:13;4.60;62.10
18648;DHT22;9453;50.294;18.644;2023-02-28T11:34:43;4.50;62.70
18648;DHT22;9453;50.294;18.644;2023-02-28T11:37:16;4.20;62.90
18648;DHT22;9453;50.294;18.644;2023-02-28T11:39:45;4.20;64.00
18648;DHT22;9453;50.294;18.644;2023-02-28T11:42:23;4.30;64.30
18648;DHT22;9453;50.294;18.644;2023-02-28T11:45:08;4.40;64.60
18648;DHT22;9453;50.294;18.644;2023-02-28T11:47:43;4.60;63.60
18648;DHT22;9453;50.294;18.644;2023-02-28T11:50:22;4.40;61.60
18648;DHT22;9453;50.294;18.644;2023-02-28T11:52:54;4.00;62.70
18648;DHT22;9453;50.294;18.644;2023-02-28T11:55:26;3.80;64.00
18648;DHT22;9453;50.294;18.644;2023-02-28T11:58:11;3.80;64.00
18648;DHT22;9453;50.294;18.644;2023-02-28T12:01:11;3.70;64.90
18648;DHT22;9453;50.294;18.644;2023-02-28T12:03:44;3.70;64.90
18648;DHT22;9453;50.294;18.644;2023-02-28T12:06:22;3.90;65.50
18648;DHT22;9453;50.294;18.644;2023-02-28T12:09:02;4.00;65.70
18648;DHT22;9453;50.294;18.644;2023-02-28T12:11:40;4.30;65.70
18648;DHT22;9453;50.294;18.644;2023-02-28T12:14:36;4.20;63.70
18648;DHT22;9453;50.294;18.644;2023-02-28T12:17:22;4.30;64.90
18648;DHT22;9453;50.294;18.644;2023-02-28T12:19:59;3.90;64.10
18648;DHT22;9453;50.294;18.644;2023-02-28T12:22:30;3.70;63.40
18648;DHT22;9453;50.294;18.644;2023-02-28T12:25:30;3.80;64.60
18648;DHT22;9453;50.294;18.644;2023-02-28T12:28:01;3.70;64.30
18648;DHT22;9453;50.294;18.644;2023-02-28T12:30:32;3.70;64.50
18648;DHT22;9453;50.294;18.644;2023-02-28T12:33:04;3.50;63.90
18648;DHT22;9453;50.294;18.644;2023-02-28T12:35:34;3.50;65.10
18648;DHT22;9453;50.294;18.644;2023-02-28T12:38:06;3.70;64.70
18648;DHT22;9453;50.294;18.644;2023-02-28T12:40:43;3.80;64.10
18648;DHT22;9453;50.294;18.644;2023-02-28T12:43:14;3.60;63.80
18648;DHT22;9453;50.294;18.644;2023-02-28T12:45:46;3.70;64.20
18648;DHT22;9453;50.294;18.644;2023-02-28T12:48:20;3.70;64.20
18648;DHT22;9453;50.294;18.644;2023-02-28T12:50:48;3.60;63.50
18648;DHT22;9453;50.294;18.644;2023-02-28T12:53:21;3.70;64.50
18648;DHT22;9453;50.294;18.644;2023-02-28T12:55:59;3.90;65.30
18648;DHT22;9453;50.294;18.644;2023-02-28T12:58:33;4.00;64.30
18648;DHT22;9453;50.294;18.644;2023-02-28T13:01:22;4.10;64.40
18648;DHT22;9453;50.294;18.644;2023-02-28T13:04:27;4.00;63.70
18648;DHT22;9453;50.294;18.644;2023-02-28T13:07:11;3.90;64.10
18648;DHT22;9453;50.294;18.644;2023-02-28T13:09:52;3.80;63.60
18648;DHT22;9453;50.294;18.644;2023-02-28T13:12:19;3.80;64.50
18648;DHT22;9453;50.294;18.644;2023-02-28T13:14:49;3.80;65.00
18648;DHT22;9453;50.294;18.644;2023-02-28T13:19:58;3.70;64.40
18648;DHT22;9453;50.294;18.644;2023-02-28T13:22:41;3.80;65.40
18648;DHT22;9453;50.294;18.644;2023-02-28T13:34:35;3.90;65.80
18648;DHT22;9453;50.294;18.644;2023-02-28T13:37:35;3.80;64.60
18648;DHT22;9453;50.294;18.644;2023-02-28T13:40:27;3.90;65.20
18648;DHT22;9453;50.294;18.644;2023-02-28T13:42:54;3.90;65.60
18648;DHT22;9453;50.294;18.644;2023-02-28T13:45:26;4.00;65.50
18648;DHT22;9453;50.294;18.644;2023-02-28T13:56:10;4.20;63.90
18648;DHT22;9453;50.294;18.644;2023-02-28T13:58:52;4.00;64.30
18648;DHT22;9453;50.294;18.644;2023-02-28T14:01:35;4.00;64.00
18648;DHT22;9453;50.294;18.644;2023-02-28T14:04:35;4.10;64.30
18648;DHT22;9453;50.294;18.644;2023-02-28T14:07:08;4.20;64.30
18648;DHT22;9453;50.294;18.644;2023-02-28T14:09:38;4.10;63.60
18648;DHT22;9453;50.294;18.644;2023-02-28T14:15:47;4.10;63.10
18648;DHT22;9453;50.294;18.644;2023-02-28T14:18:22;4.20;62.90
18648;DHT22;9453;50.294;18.644;2023-02-28T14:20:54;4.30;62.50
18648;DHT22;9453;50.294;18.644;2023-02-28T14:23:34;4.40;61.40
18648;DHT22;9453;50.294;18.644;2023-02-28T14:26:07;4.40;60.80
18648;DHT22;9453;50.294;18.644;2023-02-28T14:28:53;4.40;60.80
18648;DHT22;9453;50.294;18.644;2023-02-28T14:31:28;4.40;62.00
18648;DHT22;9453;50.294;18.644;2023-02-28T14:34:27;4.40;61.70
18648;DHT22;9453;50.294;18.644;2023-02-28T14:37:00;4.60;62.90
18648;DHT22;9453;50.294;18.644;2023-02-28T14:39:29;4.70;62.40
18648;DHT22;9453;50.294;18.644;2023-02-28T14:41:58;4.80;62.50
18648;DHT22;9453;50.294;18.644;2023-02-28T14:44:29;4.70;62.00
18648;DHT22;9453;50.294;18.644;2023-02-28T14:49:26;4.60;62.00
18648;DHT22;9453;50.294;18.644;2023-02-28T14:52:03;4.60;62.30
18648;DHT22;9453;50.294;18.644;2023-02-28T14:54:38;4.60;62.00
18648;DHT22;9453;50.294;18.644;2023-02-28T14:57:06;4.70;63.10
18648;DHT22;9453;50.294;18.644;2023-02-28T14:59:34;4.70;62.50
18648;DHT22;9453;50.294;18.644;2023-02-28T15:02:20;4.70;63.10
18648;DHT22;9453;50.294;18.644;2023-02-28T15:04:56;4.60;62.00
18648;DHT22;9453;50.294;18.644;2023-02-28T15:07:23;4.60;63.60
18648;DHT22;9453;50.294;18.644;2023-02-28T15:10:13;4.50;63.40
18648;DHT22;9453;50.294;18.644;2023-02-28T15:12:40;4.40;64.30
18648;DHT22;9453;50.294;18.644;2023-02-28T15:15:15;4.40;64.10
18648;DHT22;9453;50.294;18.644;2023-02-28T15:17:45;4.20;63.70
18648;DHT22;9453;50.294;18.644;2023-02-28T15:20:15;4.20;64.10
18648;DHT22;9453;50.294;18.644;2023-02-28T15:22:44;4.10;64.50
18648;DHT22;9453;50.294;18.644;2023-02-28T15:25:19;4.10;64.90
18648;DHT22;9453;50.294;18.644;2023-02-28T15:27:51;4.10;64.70
18648;DHT22;9453;50.294;18.644;2023-02-28T15:30:20;4.10;64.50
18648;DHT22;9453;50.294;18.644;2023-02-28T15:33:04;4.00;65.10
18648;DHT22;9453;50.294;18.644;2023-02-28T15:35:35;3.90;65.50
18648;DHT22;9453;50.294;18.644;2023-02-28T15:38:15;3.80;65.20
18648;DHT22;9453;50.294;18.644;2023-02-28T15:40:44;3.80;66.00
18648;DHT22;9453;50.294;18.644;2023-02-28T15:43:24;3.80;66.00
18648;DHT22;9453;50.294;18.644;2023-02-28T15:45:53;3.80;65.80
18648;DHT22;9453;50.294;18.644;2023-02-28T15:48:23;3.80;66.00
18648;DHT22;9453;50.294;18.644;2023-02-28T15:50:55;3.80;66.40
18648;DHT22;9453;50.294;18.644;2023-02-28T15:53:25;3.80;66.30
18648;DHT22;9453;50.294;18.644;2023-02-28T15:56:00;3.70;66.10
18648;DHT22;9453;50.294;18.644;2023-02-28T15:58:28;3.70;65.80
18648;DHT22;9453;50.294;18.644;2023-02-28T16:01:07;3.60;66.20
18648;DHT22;9453;50.294;18.644;2023-02-28T16:03:41;3.40;66.70
18648;DHT22;9453;50.294;18.644;2023-02-28T16:06:35;3.40;67.30
18648;DHT22;9453;50.294;18.644;2023-02-28T16:09:08;3.30;67.60
18648;DHT22;9453;50.294;18.644;2023-02-28T16:11:39;3.30;68.20
18648;DHT22;9453;50.294;18.644;2023-02-28T16:14:13;3.30;68.40
18648;DHT22;9453;50.294;18.644;2023-02-28T16:16:56;3.00;68.60
18648;DHT22;9453;50.294;18.644;2023-02-28T16:19:29;3.00;69.10
18648;DHT22;9453;50.294;18.644;2023-02-28T16:21:58;3.00;69.40
18648;DHT22;9453;50.294;18.644;2023-02-28T16:24:25;2.90;69.20
18648;DHT22;9453;50.294;18.644;2023-02-28T16:26:54;2.80;69.60
18648;DHT22;9453;50.294;18.644;2023-02-28T16:29:24;2.80;69.60
18648;DHT22;9453;50.294;18.644;2023-02-28T16:31:51;2.80;69.70
18648;DHT22;9453;50.294;18.644;2023-02-28T16:34:19;2.70;69.80
18648;DHT22;9453;50.294;18.644;2023-02-28T16:36:46;2.60;70.10
18648;DHT22;9453;50.294;18.644;2023-02-28T16:39:15;2.60;70.40
18648;DHT22;9453;50.294;18.644;2023-02-28T16:41:43;2.50;70.50
18648;DHT22;9453;50.294;18.644;2023-02-28T16:44:17;2.40;70.90
18648;DHT22;9453;50.294;18.644;2023-02-28T16:46:45;2.40;71.10
18648;DHT22;9453;50.294;18.644;2023-02-28T16:49:13;2.30;71.00
18648;DHT22;9453;50.294;18.644;2023-02-28T16:51:43;2.30;71.30
18648;DHT22;9453;50.294;18.644;2023-02-28T16:54:18;2.30;71.50
18648;DHT22;9453;50.294;18.644;2023-02-28T16:56:47;2.20;71.30
18648;DHT22;9453;50.294;18.644;2023-02-28T16:59:18;2.20;71.20
18648;DHT22;9453;50.294;18.644;2023-02-28T17:01:46;2.10;71.40
18648;DHT22;9453;50.294;18.644;2023-02-28T17:04:13;2.10;71.90
18648;DHT22;9453;50.294;18.644;2023-02-28T17:06:41;2.10;72.00
18648;DHT22;9453;50.294;18.644;2023-02-28T17:09:17;2.10;71.90
18648;DHT22;9453;50.294;18.644;2023-02-28T17:11:46;2.10;72.00
18648;DHT22;9453;50.294;18.644;2023-02-28T17:16:47;2.10;72.50
18648;DHT22;9453;50.294;18.644;2023-02-28T17:19:15;2.00;72.40
18648;DHT22;9453;50.294;18.644;2023-02-28T17:24:33;2.00;72.40
18648;DHT22;9453;50.294;18.644;2023-02-28T17:27:01;2.00;73.00
18648;DHT22;9453;50.294;18.644;2023-02-28T17:29:28;1.90;72.90
18648;DHT22;9453;50.294;18.644;2023-02-28T17:35:07;1.90;72.90
18648;DHT22;9453;50.294;18.644;2023-02-28T17:37:48;1.90;73.30
18648;DHT22;9453;50.294;18.644;2023-02-28T17:40:20;1.80;73.30
18648;DHT22;9453;50.294;18.644;2023-02-28T17:42:47;1.80;73.50
18648;DHT22;9453;50.294;18.644;2023-02-28T17:45:17;1.80;73.70
18648;DHT22;9453;50.294;18.644;2023-02-28T17:47:47;1.80;73.80
18648;DHT22;9453;50.294;18.644;2023-02-28T17:50:18;1.80;73.90
18648;DHT22;9453;50.294;18.644;2023-02-28T17:52:45;1.70;74.80
18648;DHT22;9453;50.294;18.644;2023-02-28T17:55:12;1.70;74.20
18648;DHT22;9453;50.294;18.644;2023-02-28T17:57:46;1.70;74.30
18648;DHT22;9453;50.294;18.644;2023-02-28T18:00:21;1.70;74.40
18648;DHT22;9453;50.294;18.644;2023-02-28T18:08:44;1.60;75.00
18648;DHT22;9453;50.294;18.644;2023-02-28T18:11:42;1.60;75.00
18648;DHT22;9453;50.294;18.644;2023-02-28T18:14:22;1.60;75.30
18648;DHT22;9453;50.294;18.644;2023-02-28T18:16:51;1.60;76.20
18648;DHT22;9453;50.294;18.644;2023-02-28T18:19:20;1.50;76.40
18648;DHT22;9453;50.294;18.644;2023-02-28T18:21:49;1.40;76.40
18648;DHT22;9453;50.294;18.644;2023-02-28T18:27:37;1.40;76.50
18648;DHT22;9453;50.294;18.644;2023-02-28T18:33:28;1.40;77.10
18648;DHT22;9453;50.294;18.644;2023-02-28T18:41:06;1.20;77.30
18648;DHT22;9453;50.294;18.644;2023-02-28T18:43:35;1.20;77.60
18648;DHT22;9453;50.294;18.644;2023-02-28T18:46:04;1.20;77.90
18648;DHT22;9453;50.294;18.644;2023-02-28T18:48:32;1.20;77.90
18648;DHT22;9453;50.294;18.644;2023-02-28T18:51:21;1.20;77.90
18648;DHT22;9453;50.294;18.644;2023-02-28T18:54:11;1.10;78.10
18648;DHT22;9453;50.294;18.644;2023-02-28T18:56:55;1.30;78.70
18648;DHT22;9453;50.294;18.644;2023-02-28T18:59:52;1.00;78.90
18648;DHT22;9453;50.294;18.644;2023-02-28T19:02:22;1.00;79.40
18648;DHT22;9453;50.294;18.644;2023-02-28T19:05:07;1.00;79.70
18648;DHT22;9453;50.294;18.644;2023-02-28T19:07:36;0.90;79.70
18648;DHT22;9453;50.294;18.644;2023-02-28T19:10:03;0.90;79.90
18648;DHT22;9453;50.294;18.644;2023-02-28T19:12:33;0.80;79.80
18648;DHT22;9453;50.294;18.644;2023-02-28T19:15:04;0.80;80.10
18648;DHT22;9453;50.294;18.644;2023-02-28T19:17:32;0.90;80.50
18648;DHT22;9453;50.294;18.644;2023-02-28T19:20:27;0.80;80.50
18648;DHT22;9453;50.294;18.644;2023-02-28T19:26:08;0.80;80.90
18648;DHT22;9453;50.294;18.644;2023-02-28T19:28:47;0.60;82.20
18648;DHT22;9453;50.294;18.644;2023-02-28T19:31:42;0.90;81.80
18648;DHT22;9453;50.294;18.644;2023-02-28T19:34:16;0.70;81.90
18648;DHT22;9453;50.294;18.644;2023-02-28T19:37:06;0.70;81.80
18648;DHT22;9453;50.294;18.644;2023-02-28T19:39:42;0.70;81.60
18648;DHT22;9453;50.294;18.644;2023-02-28T19:42:21;0.70;81.70
18648;DHT22;9453;50.294;18.644;2023-02-28T19:45:04;0.70;81.80
18648;DHT22;9453;50.294;18.644;2023-02-28T19:47:42;0.70;82.30
18648;DHT22;9453;50.294;18.644;2023-02-28T19:53:24;0.70;82.30
18648;DHT22;9453;50.294;18.644;2023-02-28T19:56:03;0.70;83.60
18648;DHT22;9453;50.294;18.644;2023-02-28T19:59:06;0.70;84.30
18648;DHT22;9453;50.294;18.644;2023-02-28T20:02:04;0.50;84.10
18648;DHT22;9453;50.294;18.644;2023-02-28T20:04:34;0.60;84.00
18648;DHT22;9453;50.294;18.644;2023-02-28T20:07:37;0.60;84.40
18648;DHT22;9453;50.294;18.644;2023-02-28T20:10:44;0.50;84.40
18648;DHT22;9453;50.294;18.644;2023-02-28T20:13:51;0.40;84.90
18648;DHT22;9453;50.294;18.644;2023-02-28T20:19:34;0.20;86.80
18648;DHT22;9453;50.294;18.644;2023-02-28T20:22:42;0.20;87.80
18648;DHT22;9453;50.294;18.644;2023-02-28T20:25:32;0.00;88.10
18648;DHT22;9453;50.294;18.644;2023-02-28T20:28:15;0.10;88.20
18648;DHT22;9453;50.294;18.644;2023-02-28T20:34:26;0.00;88.60
18648;DHT22;9453;50.294;18.644;2023-02-28T20:39:55;-0.10;89.30
18648;DHT22;9453;50.294;18.644;2023-02-28T20:42:23;-0.10;89.00
18648;DHT22;9453;50.294;18.644;2023-02-28T20:45:09;-0.10;89.10
18648;DHT22;9453;50.294;18.644;2023-02-28T20:57:43;0.00;89.50
18648;DHT22;9453;50.294;18.644;2023-02-28T21:00:15;0.10;89.70
18648;DHT22;9453;50.294;18.644;2023-02-28T21:03:12;-0.10;90.00
18648;DHT22;9453;50.294;18.644;2023-02-28T21:09:14;-0.10;90.40
18648;DHT22;9453;50.294;18.644;2023-02-28T21:11:52;-0.20;90.40
18648;DHT22;9453;50.294;18.644;2023-02-28T21:14:31;-0.20;90.40
18648;DHT22;9453;50.294;18.644;2023-02-28T21:20:25;-0.20;90.20
18648;DHT22;9453;50.294;18.644;2023-02-28T21:23:13;-0.10;90.20
18648;DHT22;9453;50.294;18.644;2023-02-28T21:26:12;-0.10;90.20
18648;DHT22;9453;50.294;18.644;2023-02-28T21:28:40;-0.20;90.30
18648;DHT22;9453;50.294;18.644;2023-02-28T21:32:16;-0.20;90.40
18648;DHT22;9453;50.294;18.644;2023-02-28T21:38:12;-0.20;90.90
18648;DHT22;9453;50.294;18.644;2023-02-28T21:41:27;-0.20;90.80
18648;DHT22;9453;50.294;18.644;2023-02-28T21:47:15;-0.20;91.20
18648;DHT22;9453;50.294;18.644;2023-02-28T21:50:03;-0.20;91.10
18648;DHT22;9453;50.294;18.644;2023-02-28T21:52:43;-0.20;91.20
18648;DHT22;9453;50.294;18.644;2023-02-28T21:55:56;-0.20;91.50
18648;DHT22;9453;50.294;18.644;2023-02-28T21:59:02;-0.20;91.30
18648;DHT22;9453;50.294;18.644;2023-02-28T22:02:02;-0.20;91.60
18648;DHT22;9453;50.294;18.644;2023-02-28T22:04:32;-0.50;91.30
18648;DHT22;9453;50.294;18.644;2023-02-28T22:07:02;-0.40;91.40
18648;DHT22;9453;50.294;18.644;2023-02-28T22:09:51;-0.50;91.60
18648;DHT22;9453;50.294;18.644;2023-02-28T22:12:53;-0.40;91.90
18648;DHT22;9453;50.294;18.644;2023-02-28T22:15:23;-0.60;92.00
18648;DHT22;9453;50.294;18.644;2023-02-28T22:18:02;-0.60;92.50
18648;DHT22;9453;50.294;18.644;2023-02-28T22:21:27;-0.80;92.30
18648;DHT22;9453;50.294;18.644;2023-02-28T22:25:10;-0.90;92.70
18648;DHT22;9453;50.294;18.644;2023-02-28T22:27:53;-1.00;93.00
18648;DHT22;9453;50.294;18.644;2023-02-28T22:30:33;-0.90;93.40
18648;DHT22;9453;50.294;18.644;2023-02-28T22:33:10;-0.90;93.20
18648;DHT22;9453;50.294;18.644;2023-02-28T22:36:42;-0.90;93.40
18648;DHT22;9453;50.294;18.644;2023-02-28T22:39:21;-0.70;93.50
18648;DHT22;9453;50.294;18.644;2023-02-28T22:42:23;-0.90;93.80
18648;DHT22;9453;50.294;18.644;2023-02-28T22:45:07;-0.80;94.40
18648;DHT22;9453;50.294;18.644;2023-02-28T22:47:48;-0.90;94.30
18648;DHT22;9453;50.294;18.644;2023-02-28T22:53:18;-0.70;94.60
18648;DHT22;9453;50.294;18.644;2023-02-28T22:56:11;-0.90;94.60
18648;DHT22;9453;50.294;18.644;2023-02-28T22:59:02;-0.90;94.70
18648;DHT22;9453;50.294;18.644;2023-02-28T23:01:44;-0.80;94.80
18648;DHT22;9453;50.294;18.644;2023-02-28T23:04:21;-0.90;94.60
18648;DHT22;9453;50.294;18.644;2023-02-28T23:11:04;-1.20;95.60
18648;DHT22;9453;50.294;18.644;2023-02-28T23:17:03;-1.40;96.20